Time;durP1;ratioP1;P1;durP2;ratioP2;P2;SDS_P1;SDS_P2;PMS_P1;PMS_P2;Temp;Humidity;BMP_temperature;BMP_pressure;BME280_temperature;BME280_humidity;BME280_pressure;Samples;Min_cycle;Max_cycle;Signal;HPM_P1;HPM_P2
2022/10/26 00:01:18;;;;;;;;;;;;;;;;;;5055005;28;7036;-80
2022/10/26 00:03:45;;;;;;;;;;;;;;;;;;5037389;28;7162;-82
2022/10/26 00:06:18;;;;;;;;;;;;;;;;;;5037851;28;8409;-82
2022/10/26 00:08:44;;;;;;;;;;;;;;;;;;5037391;28;6904;-81
2022/10/26 00:11:10;;;;;;;;;;;;;;;;;;5037379;28;8797;-80
2022/10/26 00:13:37;;;;;;;;;;;;;;;;;;5037182;28;8859;-81
2022/10/26 00:16:11;;;;;;;;;;;;;;;;;;5037272;28;7497;-81
2022/10/26 00:18:37;;;;;;;;;;;;;;;;;;5037422;28;8744;-81
2022/10/26 00:21:04;;;;;;;;;;;;;;;;;;5054189;28;7013;-81
2022/10/26 00:23:30;;;;;;;;;;;;;;;;;;5037366;28;8816;-81
2022/10/26 00:25:56;;;;;;;;;;;;;;;;;;5053526;28;8493;-83
2022/10/26 00:28:21;;;;;;;;;;;;;;;;;;5037732;28;8461;-82
2022/10/26 00:30:47;;;;;;;;;;;;;;;;;;5053709;28;7325;-80
2022/10/26 00:33:12;;;;;;;;;;;;;;;;;;5053872;28;8498;-79
2022/10/26 00:35:38;;;;;;;;;;;;;;;;;;5037279;28;8411;-78
2022/10/26 00:38:03;;;;;;;;;;;;;;;;;;5053778;28;8487;-80
2022/10/26 00:40:29;;;;;;;;;;;;;;;;;;5037304;28;8496;-79
2022/10/26 00:42:55;;;;;;;;;;;;;;;;;;5037048;28;8631;-79
2022/10/26 00:45:25;;;;;;;;;;;;;;;;;;5036408;28;8406;-78
2022/10/26 00:48:01;;;;;;;;;;;;;;;;;;5036947;28;8453;-80
2022/10/26 00:50:31;;;;;;;;;;;;;;;;;;5036783;28;8398;-81
2022/10/26 00:52:59;;;;;;;;;;;;;;;;;;5037265;28;8458;-81
2022/10/26 00:55:28;;;;;;;;;;;;;;;;;;5037067;28;7171;-82
2022/10/26 00:57:54;;;;;;;;;;;;;;;;;;5036956;28;7284;-81
2022/10/26 01:00:20;;;;;;;;;;;;;;;;;;5037045;28;8359;-82
2022/10/26 01:02:48;;;;;;;;;;;;;;;;;;5036914;28;8564;-82
2022/10/26 01:05:16;;;;;;;;;;;;;;;;;;5036955;28;8426;-82
2022/10/26 01:07:44;;;;;;;;;;;;;;;;;;5036738;28;7152;-81
2022/10/26 01:10:10;;;;;;;;;;;;;;;;;;5036598;28;8423;-81
2022/10/26 01:12:36;;;;;;;;;;;;;;;;;;5036470;28;7144;-82
2022/10/26 01:15:03;;;;;;;;;;;;;;;;;;5037207;28;8580;-81
2022/10/26 01:17:46;;;;;;;;;;;;;;;;;;5036888;28;7035;-79
2022/10/26 01:20:15;;;;;;;;;;;;;;;;;;5036523;28;7046;-79
2022/10/26 01:22:40;;;;;;;;;;;;;;;;;;5036988;28;8376;-81
2022/10/26 01:25:24;;;;;;;;;;;;;;;;;;5036386;28;7017;-81
2022/10/26 01:27:52;;;;;;;;;;;;;;;;;;5036554;28;8737;-80
2022/10/26 01:30:21;;;;;;;;;;;;;;;;;;5036658;28;7023;-80
2022/10/26 01:33:01;;;;;;;;;;;;;;;;;;5036720;28;7114;-81
2022/10/26 01:35:33;;;;;;;;;;;;;;;;;;5036376;28;8285;-80
2022/10/26 01:38:05;;;;;;;;;;;;;;;;;;5036438;28;8425;-80
2022/10/26 01:40:36;;;;;;;;;;;;;;;;;;5036803;28;7198;-79
2022/10/26 01:43:06;;;;;;;;;;;;;;;;;;5036264;28;8358;-81
2022/10/26 01:45:34;;;;;;;;;;;;;;;;;;5036444;28;8454;-78
2022/10/26 01:48:03;;;;;;;;;;;;;;;;;;5036197;28;8434;-79
2022/10/26 01:50:31;;;;;;;;;;;;;;;;;;5036427;28;6802;-79
2022/10/26 01:52:57;;;;;;;;;;;;;;;;;;5036265;28;8420;-79
2022/10/26 01:55:38;;;;;;;;;;;;;;;;;;5035859;28;7406;-81
2022/10/26 01:58:15;;;;;;;;;;;;;;;;;;5036519;28;7185;-81
2022/10/26 02:00:49;;;;;;;;;;;;;;;;;;5036912;28;8450;-83
2022/10/26 02:03:27;;;;;;;;;;;;;;;;;;5036277;28;7033;-81
2022/10/26 02:06:25;;;;;;;;;;;;;;;;;;5036288;28;7042;-80
2022/10/26 02:08:50;;;;;;;;;;;;;;;;;;4983997;28;8426;-80
2022/10/26 02:11:22;;;;;;;;;;;;;;;;;;5039897;28;7127;-80
2022/10/26 02:13:53;;;;;;;;;;;;;;;;;;5039595;28;8960;-78
2022/10/26 02:16:36;;;;;;;;;;;;;;;;;;5039511;28;8388;-81
2022/10/26 02:19:07;;;;;;;;;;;;;;;;;;5039736;28;8355;-79
2022/10/26 02:21:37;;;;;;;;;;;;;;;;;;5039546;28;8430;-81
2022/10/26 02:24:06;;;;;;;;;;;;;;;;;;5039299;28;8406;-82
2022/10/26 02:26:34;;;;;;;;;;;;;;;;;;5039508;28;8698;-78
2022/10/26 02:29:03;;;;;;;;;;;;;;;;;;5039327;28;7346;-79
2022/10/26 02:31:31;;;;;;;;;;;;;;;;;;5039736;28;7071;-78
2022/10/26 02:34:00;;;;;;;;;;;;;;;;;;5040018;28;7394;-77
2022/10/26 02:36:30;;;;;;;;;;;;;;;;;;5039086;28;7153;-80
2022/10/26 02:38:58;;;;;;;;;;;;;;;;;;5039078;28;8300;-79
2022/10/26 02:41:27;;;;;;;;;;;;;;;;;;5040001;28;7169;-79
2022/10/26 02:43:59;;;;;;;;;;;;;;;;;;5038992;28;7036;-80
2022/10/26 02:46:26;;;;;;;;;;;;;;;;;;5039296;28;8562;-80
2022/10/26 02:48:52;;;;;;;;;;;;;;;;;;5039114;28;8612;-82
2022/10/26 02:51:18;;;;;;;;;;;;;;;;;;5039185;28;7029;-83
2022/10/26 02:53:52;;;;;;;;;;;;;;;;;;5039293;28;8403;-81
2022/10/26 02:56:26;;;;;;;;;;;;;;;;;;5038681;28;6999;-79
2022/10/26 02:59:06;;;;;;;;;;;;;;;;;;5040768;28;7160;-81
2022/10/26 03:01:33;;;;;;;;;;;;;;;;;;5039029;28;8983;-83
2022/10/26 03:03:58;;;;;;;;;;;;;;;;;;5038614;28;8775;-81
2022/10/26 03:06:25;;;;;;;;;;;;;;;;;;5038666;28;8402;-82
2022/10/26 03:08:51;;;;;;;;;;;;;;;;;;5038942;28;7385;-81
2022/10/26 03:11:17;;;;;;;;;;;;;;;;;;5038651;28;8533;-82
2022/10/26 03:13:42;;;;;;;;;;;;;;;;;;5038588;28;8397;-81
2022/10/26 03:16:08;;;;;;;;;;;;;;;;;;5038995;28;6795;-80
2022/10/26 03:18:34;;;;;;;;;;;;;;;;;;5055141;28;7171;-82
2022/10/26 03:20:59;;;;;;;;;;;;;;;;;;5054943;28;8343;-82
2022/10/26 03:23:25;;;;;;;;;;;;;;;;;;5055200;28;7127;-80
2022/10/26 03:25:50;;;;;;;;;;;;;;;;;;5054699;28;7144;-80
2022/10/26 03:28:16;;;;;;;;;;;;;;;;;;5054737;28;7144;-82
2022/10/26 03:30:41;;;;;;;;;;;;;;;;;;5054599;28;8406;-81
2022/10/26 03:33:07;;;;;;;;;;;;;;;;;;5038351;28;7152;-80
2022/10/26 03:35:33;;;;;;;;;;;;;;;;;;5038384;28;8532;-82
2022/10/26 03:37:58;;;;;;;;;;;;;;;;;;5055016;28;7157;-80
2022/10/26 03:40:24;;;;;;;;;;;;;;;;;;5039094;28;7164;-82
2022/10/26 03:42:53;;;;;;;;;;;;;;;;;;5038319;28;7158;-80
2022/10/26 03:45:18;;;;;;;;;;;;;;;;;;5054911;28;7398;-78
2022/10/26 03:47:45;;;;;;;;;;;;;;;;;;5038298;28;8398;-80
2022/10/26 03:50:12;;;;;;;;;;;;;;;;;;5037755;28;8744;-78
2022/10/26 03:52:38;;;;;;;;;;;;;;;;;;5037808;28;7395;-80
2022/10/26 03:55:04;;;;;;;;;;;;;;;;;;5037224;28;9502;-79
2022/10/26 03:57:30;;;;;;;;;;;;;;;;;;5037547;28;7259;-82
2022/10/26 03:59:55;;;;;;;;;;;;;;;;;;5054269;28;8358;-83
2022/10/26 04:02:21;;;;;;;;;;;;;;;;;;5054550;28;7442;-79
2022/10/26 04:04:46;;;;;;;;;;;;;;;;;;5054101;28;8419;-78
2022/10/26 04:07:12;;;;;;;;;;;;;;;;;;5054169;28;8355;-79
2022/10/26 04:09:37;;;;;;;;;;;;;;;;;;5054022;28;7185;-78
2022/10/26 04:12:03;;;;;;;;;;;;;;;;;;5053908;28;8444;-79
2022/10/26 04:14:28;;;;;;;;;;;;;;;;;;5037284;28;8455;-79
2022/10/26 04:16:54;;;;;;;;;;;;;;;;;;5054074;28;8595;-80
2022/10/26 04:19:19;;;;;;;;;;;;;;;;;;5053833;28;8627;-79
2022/10/26 04:21:44;;;;;;;;;;;;;;;;;;5053781;28;8416;-80
2022/10/26 04:24:10;;;;;;;;;;;;;;;;;;5054704;28;8487;-80
2022/10/26 04:26:36;;;;;;;;;;;;;;;;;;5053775;28;7031;-79
2022/10/26 04:29:05;;;;;;;;;;;;;;;;;;5037499;28;8405;-80
2022/10/26 04:31:31;;;;;;;;;;;;;;;;;;5036800;28;6987;-79
2022/10/26 04:33:57;;;;;;;;;;;;;;;;;;5036946;28;8257;-80
2022/10/26 04:36:22;;;;;;;;;;;;;;;;;;5036968;28;8388;-79
2022/10/26 04:38:48;;;;;;;;;;;;;;;;;;5053494;28;8403;-79
2022/10/26 04:41:14;;;;;;;;;;;;;;;;;;5036490;28;7160;-80
2022/10/26 04:43:40;;;;;;;;;;;;;;;;;;5037158;28;8532;-79
2022/10/26 04:46:05;;;;;;;;;;;;;;;;;;5053746;28;8447;-80
2022/10/26 04:48:30;;;;;;;;;;;;;;;;;;5053512;28;7136;-80
2022/10/26 04:51:00;;;;;;;;;;;;;;;;;;5053132;28;7242;-78
2022/10/26 04:53:26;;;;;;;;;;;;;;;;;;5036894;28;7058;-79
2022/10/26 04:55:59;;;;;;;;;;;;;;;;;;5036713;28;7312;-80
2022/10/26 04:58:25;;;;;;;;;;;;;;;;;;5033466;28;8601;-80
2022/10/26 05:00:50;;;;;;;;;;;;;;;;;;5028282;28;8632;-80
2022/10/26 05:03:16;;;;;;;;;;;;;;;;;;5050185;28;7357;-81
2022/10/26 05:05:41;;;;;;;;;;;;;;;;;;5016630;28;7144;-80
2022/10/26 05:08:07;;;;;;;;;;;;;;;;;;5023005;28;7375;-80
2022/10/26 05:10:32;;;;;;;;;;;;;;;;;;5036541;28;8316;-81
2022/10/26 05:12:59;;;;;;;;;;;;;;;;;;5036784;28;8408;-81
2022/10/26 05:15:25;;;;;;;;;;;;;;;;;;5036639;28;7048;-79
2022/10/26 05:17:58;;;;;;;;;;;;;;;;;;5037265;28;7047;-78
2022/10/26 05:20:29;;;;;;;;;;;;;;;;;;5036996;28;8651;-80
2022/10/26 05:22:56;;;;;;;;;;;;;;;;;;5036847;28;9035;-81
2022/10/26 05:25:22;;;;;;;;;;;;;;;;;;5036591;28;8574;-81
2022/10/26 05:27:47;;;;;;;;;;;;;;;;;;5033523;28;7354;-82
2022/10/26 05:30:13;;;;;;;;;;;;;;;;;;5028785;28;8423;-81
2022/10/26 05:32:38;;;;;;;;;;;;;;;;;;5053384;28;7323;-80
2022/10/26 05:35:04;;;;;;;;;;;;;;;;;;5053291;28;8396;-79
2022/10/26 05:37:29;;;;;;;;;;;;;;;;;;5036898;28;8449;-80
2022/10/26 05:39:55;;;;;;;;;;;;;;;;;;5036360;28;7125;-81
2022/10/26 05:42:20;;;;;;;;;;;;;;;;;;5053440;28;7321;-81
2022/10/26 05:44:46;;;;;;;;;;;;;;;;;;5052824;28;8539;-80
2022/10/26 05:47:11;;;;;;;;;;;;;;;;;;5020129;28;8529;-79
2022/10/26 05:49:37;;;;;;;;;;;;;;;;;;5020435;28;8428;-79
2022/10/26 05:52:02;;;;;;;;;;;;;;;;;;5036934;28;8404;-79
2022/10/26 05:54:28;;;;;;;;;;;;;;;;;;5039879;28;8413;-81
2022/10/26 05:56:53;;;;;;;;;;;;;;;;;;5040094;28;8457;-79
2022/10/26 05:59:19;;;;;;;;;;;;;;;;;;5040293;28;7004;-79
2022/10/26 06:01:51;;;;;;;;;;;;;;;;;;5040129;28;8390;-78
2022/10/26 06:04:29;;;;;;;;;;;;;;;;;;5021666;28;8434;-79
2022/10/26 06:06:56;;;;;;;;;;;;;;;;;;5020112;28;8910;-79
2022/10/26 06:09:22;;;;;;;;;;;;;;;;;;5037654;28;7154;-80
2022/10/26 06:11:48;;;;;;;;;;;;;;;;;;5039646;28;8561;-80
2022/10/26 06:14:14;;;;;;;;;;;;;;;;;;5039335;28;8409;-81
2022/10/26 06:16:39;;;;;;;;;;;;;;;;;;5039785;28;8380;-81
2022/10/26 06:19:24;;;;;;;;;;;;;;;;;;5040056;28;7025;-80
2022/10/26 06:22:07;;;;;;;;;;;;;;;;;;5036184;28;8421;-79
2022/10/26 06:24:32;;;;;;;;;;;;;;;;;;5043252;28;7025;-79
2022/10/26 06:26:58;;;;;;;;;;;;;;;;;;5033624;28;7203;-81
2022/10/26 06:29:36;;;;;;;;;;;;;;;;;;5030176;28;7421;-82
2022/10/26 06:32:01;;;;;;;;;;;;;;;;;;5035348;28;8425;-81
2022/10/26 06:34:32;;;;;;;;;;;;;;;;;;5053356;28;7165;-79
2022/10/26 06:36:59;;;;;;;;;;;;;;;;;;5038517;28;8443;-81
2022/10/26 06:39:28;;;;;;;;;;;;;;;;;;5038985;28;8404;-81
2022/10/26 06:41:56;;;;;;;;;;;;;;;;;;5038840;28;8612;-82
2022/10/26 06:44:22;;;;;;;;;;;;;;;;;;5039087;28;8690;-82
2022/10/26 06:47:03;;;;;;;;;;;;;;;;;;5039218;28;7448;-81
2022/10/26 06:49:37;;;;;;;;;;;;;;;;;;5040686;28;7077;-80
2022/10/26 06:52:06;;;;;;;;;;;;;;;;;;5039542;28;8792;-76
2022/10/26 06:54:51;;;;;;;;;;;;;;;;;;5037905;28;7087;-77
2022/10/26 06:57:19;;;;;;;;;;;;;;;;;;5039495;28;7167;-80
2022/10/26 06:59:49;;;;;;;;;;;;;;;;;;5042187;28;7028;-77
2022/10/26 07:02:15;;;;;;;;;;;;;;;;;;5038259;28;7167;-79
2022/10/26 07:04:42;;;;;;;;;;;;;;;;;;5037210;28;8448;-84
2022/10/26 07:07:13;;;;;;;;;;;;;;;;;;5018938;28;7180;-82
2022/10/26 07:09:38;;;;;;;;;;;;;;;;;;5021131;28;7022;-81
2022/10/26 07:12:05;;;;;;;;;;;;;;;;;;5022733;28;7128;-80
2022/10/26 07:14:31;;;;;;;;;;;;;;;;;;5022944;28;7023;-83
2022/10/26 07:16:57;;;;;;;;;;;;;;;;;;5024210;28;7680;-80
2022/10/26 07:19:23;;;;;;;;;;;;;;;;;;5031471;28;8413;-79
2022/10/26 07:21:48;;;;;;;;;;;;;;;;;;5028252;28;6896;-83
2022/10/26 07:24:14;;;;;;;;;;;;;;;;;;5022821;28;8650;-82
2022/10/26 07:26:39;;;;;;;;;;;;;;;;;;5036696;28;8402;-83
2022/10/26 07:29:05;;;;;;;;;;;;;;;;;;5049850;28;7112;-83
2022/10/26 07:31:31;;;;;;;;;;;;;;;;;;5056666;28;8711;-83
2022/10/26 07:33:56;;;;;;;;;;;;;;;;;;5068074;28;7170;-81
2022/10/26 07:36:22;;;;;;;;;;;;;;;;;;5048695;28;7058;-83
2022/10/26 07:38:50;;;;;;;;;;;;;;;;;;5053759;28;8808;-83
2022/10/26 07:41:15;;;;;;;;;;;;;;;;;;5054121;28;8388;-82
2022/10/26 07:43:44;;;;;;;;;;;;;;;;;;5053809;28;8419;-82
2022/10/26 07:46:09;;;;;;;;;;;;;;;;;;5052710;28;7019;-80
2022/10/26 07:48:35;;;;;;;;;;;;;;;;;;5036658;28;7154;-81
2022/10/26 07:51:01;;;;;;;;;;;;;;;;;;5053316;28;8418;-80
2022/10/26 07:53:27;;;;;;;;;;;;;;;;;;5053472;28;8792;-81
2022/10/26 07:55:54;;;;;;;;;;;;;;;;;;5053353;28;6821;-79
2022/10/26 07:58:22;;;;;;;;;;;;;;;;;;5049563;28;8414;-80
2022/10/26 08:00:49;;;;;;;;;;;;;;;;;;5033102;28;8306;-83
2022/10/26 08:03:15;;;;;;;;;;;;;;;;;;5026756;28;7165;-83
2022/10/26 08:05:40;;;;;;;;;;;;;;;;;;5034894;28;8381;-84
2022/10/26 08:08:05;;;;;;;;;;;;;;;;;;5050782;28;7135;-78
2022/10/26 08:10:31;;;;;;;;;;;;;;;;;;5053113;28;7165;-79
2022/10/26 08:12:57;;;;;;;;;;;;;;;;;;5039438;28;7115;-83
2022/10/26 08:15:23;;;;;;;;;;;;;;;;;;5034580;28;7140;-82
2022/10/26 08:17:48;;;;;;;;;;;;;;;;;;5037093;28;7094;-77
2022/10/26 08:20:14;;;;;;;;;;;;;;;;;;5035612;28;6956;-82
2022/10/26 08:22:40;;;;;;;;;;;;;;;;;;5037819;28;7143;-80
2022/10/26 08:25:06;;;;;;;;;;;;;;;;;;5056566;28;6887;-83
2022/10/26 08:27:31;;;;;;;;;;;;;;;;;;5040921;28;7010;-81
2022/10/26 08:29:57;;;;;;;;;;;;;;;;;;5039461;28;7002;-77
2022/10/26 08:32:22;;;;;;;;;;;;;;;;;;5017427;28;8218;-79
2022/10/26 08:34:48;;;;;;;;;;;;;;;;;;5044154;28;8341;-80
2022/10/26 08:37:14;;;;;;;;;;;;;;;;;;5058377;28;6974;-80
2022/10/26 08:39:40;;;;;;;;;;;;;;;;;;5055103;28;6870;-81
2022/10/26 08:42:13;;;;;;;;;;;;;;;;;;5060484;28;7117;-78
2022/10/26 08:44:57;;;;;;;;;;;;;;;;;;5056239;28;8293;-80
2022/10/26 08:47:26;;;;;;;;;;;;;;;;;;5054100;28;7083;-80
2022/10/26 08:49:55;;;;;;;;;;;;;;;;;;5054987;28;8412;-79
2022/10/26 08:52:25;;;;;;;;;;;;;;;;;;5057507;28;6992;-81
2022/10/26 08:54:55;;;;;;;;;;;;;;;;;;5056353;28;7130;-81
2022/10/26 08:57:27;;;;;;;;;;;;;;;;;;5038195;28;8406;-78
2022/10/26 08:59:56;;;;;;;;;;;;;;;;;;5019859;28;8460;-83
2022/10/26 09:02:23;;;;;;;;;;;;;;;;;;5020206;28;8520;-79
2022/10/26 09:04:50;;;;;;;;;;;;;;;;;;5021341;28;7181;-78
2022/10/26 09:07:34;;;;;;;;;;;;;;;;;;5017114;28;7055;-78
2022/10/26 09:10:09;;;;;;;;;;;;;;;;;;5019914;28;7043;-77
2022/10/26 09:12:37;;;;;;;;;;;;;;;;;;5023086;28;6848;-80
2022/10/26 09:15:29;;;;;;;;;;;;;;;;;;5019512;28;7021;-77
2022/10/26 09:17:55;;;;;;;;;;;;;;;;;;5037348;28;6994;-80
2022/10/26 09:20:25;;;;;;;;;;;;;;;;;;5023272;28;8269;-77
2022/10/26 09:23:16;;;;;;;;;;;;;;;;;;5020187;28;6823;-81
2022/10/26 09:25:43;;;;;;;;;;;;;;;;;;5020017;28;6824;-79
2022/10/26 09:28:16;;;;;;;;;;;;;;;;;;5021722;28;7256;-79
2022/10/26 09:30:45;;;;;;;;;;;;;;;;;;5020209;28;8633;-78
2022/10/26 09:33:15;;;;;;;;;;;;;;;;;;5019479;28;7178;-82
2022/10/26 09:35:52;;;;;;;;;;;;;;;;;;5019935;28;7045;-83
2022/10/26 09:38:33;;;;;;;;;;;;;;;;;;5020422;28;8399;-81
2022/10/26 09:41:04;;;;;;;;;;;;;;;;;;5021313;28;8279;-81
2022/10/26 09:43:36;;;;;;;;;;;;;;;;;;5024803;28;7051;-80
2022/10/26 09:46:02;;;;;;;;;;;;;;;;;;5023974;28;8480;-82
2022/10/26 09:48:44;;;;;;;;;;;;;;;;;;5019628;28;7016;-81
2022/10/26 09:51:10;;;;;;;;;;;;;;;;;;5020395;28;8419;-83
2022/10/26 09:53:36;;;;;;;;;;;;;;;;;;5020395;28;9173;-83
2022/10/26 09:56:11;;;;;;;;;;;;;;;;;;5044908;28;7507;-80
2022/10/26 09:58:43;;;;;;;;;;;;;;;;;;5047957;28;9671;-76
2022/10/26 10:01:21;;;;;;;;;;;;;;;;;;5050405;28;8482;-81
2022/10/26 10:03:47;;;;;;;;;;;;;;;;;;5036792;28;7265;-81
2022/10/26 10:06:17;;;;;;;;;;;;;;;;;;5036423;28;8394;-80
2022/10/26 10:09:03;;;;;;;;;;;;;;;;;;5036486;28;8376;-81
2022/10/26 10:11:53;;;;;;;;;;;;;;;;;;5036518;28;7044;-81
2022/10/26 10:14:21;;;;;;;;;;;;;;;;;;5036978;28;8750;-81
2022/10/26 10:16:58;;;;;;;;;;;;;;;;;;5036607;28;7038;-82
2022/10/26 10:19:29;;;;;;;;;;;;;;;;;;5036479;28;7076;-81
2022/10/26 10:21:57;;;;;;;;;;;;;;;;;;5036221;28;8396;-76
2022/10/26 10:24:30;;;;;;;;;;;;;;;;;;5036079;28;7160;-77
2022/10/26 10:27:11;;;;;;;;;;;;;;;;;;5035746;28;6882;-81
2022/10/26 10:29:44;;;;;;;;;;;;;;;;;;5035316;28;7176;-79
2022/10/26 10:32:19;;;;;;;;;;;;;;;;;;5036055;28;9254;-80
2022/10/26 10:34:46;;;;;;;;;;;;;;;;;;5035625;28;8405;-82
2022/10/26 10:37:31;;;;;;;;;;;;;;;;;;5035708;28;8403;-82
2022/10/26 10:40:00;;;;;;;;;;;;;;;;;;5035422;28;7844;-82
2022/10/26 10:42:30;;;;;;;;;;;;;;;;;;5035534;28;7042;-81
2022/10/26 10:44:56;;;;;;;;;;;;;;;;;;5036197;28;7044;-81
2022/10/26 10:47:24;;;;;;;;;;;;;;;;;;5018846;28;8514;-80
2022/10/26 10:49:52;;;;;;;;;;;;;;;;;;5019360;28;7242;-78
2022/10/26 10:52:26;;;;;;;;;;;;;;;;;;5019255;28;8386;-80
2022/10/26 10:54:58;;;;;;;;;;;;;;;;;;5018931;28;8412;-80
2022/10/26 10:57:35;;;;;;;;;;;;;;;;;;5016931;28;7105;-81
2022/10/26 11:00:00;;;;;;;;;;;;;;;;;;4999161;28;7350;-81
2022/10/26 11:02:56;;;;;;;;;;;;;;;;;;4999227;28;7582;-82
2022/10/26 11:05:24;;;;;;;;;;;;;;;;;;5001600;28;8291;-83
2022/10/26 11:08:11;;;;;;;;;;;;;;;;;;5003767;28;6966;-82
2022/10/26 11:10:45;;;;;;;;;;;;;;;;;;4998811;28;7171;-82
2022/10/26 11:13:26;;;;;;;;;;;;;;;;;;4998833;28;8866;-81
2022/10/26 11:16:02;;;;;;;;;;;;;;;;;;4998199;28;7034;-80
2022/10/26 11:18:33;;;;;;;;;;;;;;;;;;4998871;28;7354;-82
2022/10/26 11:21:11;;;;;;;;;;;;;;;;;;4999321;28;8448;-82
2022/10/26 11:23:42;;;;;;;;;;;;;;;;;;4999178;28;7637;-82
2022/10/26 11:26:13;;;;;;;;;;;;;;;;;;4998011;28;7160;-83
2022/10/26 11:28:44;;;;;;;;;;;;;;;;;;4996440;28;7023;-82
2022/10/26 11:31:14;;;;;;;;;;;;;;;;;;4997937;28;7044;-83
2022/10/26 11:33:43;;;;;;;;;;;;;;;;;;5021833;28;7228;-79
2022/10/26 11:36:13;;;;;;;;;;;;;;;;;;5017700;28;7389;-84
2022/10/26 11:38:45;;;;;;;;;;;;;;;;;;5018062;28;8789;-80
2022/10/26 11:41:11;;;;;;;;;;;;;;;;;;5017625;28;7071;-83
2022/10/26 11:43:47;;;;;;;;;;;;;;;;;;5017198;28;6887;-83
2022/10/26 11:46:13;;;;;;;;;;;;;;;;;;5017459;28;7244;-81
2022/10/26 11:48:50;;;;;;;;;;;;;;;;;;5017041;28;7125;-81
2022/10/26 11:51:31;;;;;;;;;;;;;;;;;;5017411;28;8560;-81
2022/10/26 11:54:02;;;;;;;;;;;;;;;;;;5017751;28;8385;-81
2022/10/26 11:56:38;;;;;;;;;;;;;;;;;;5029387;28;8522;-82
2022/10/26 11:59:05;;;;;;;;;;;;;;;;;;5037633;28;8695;-82
2022/10/26 12:01:32;;;;;;;;;;;;;;;;;;5037496;28;8593;-83
2022/10/26 12:04:01;;;;;;;;;;;;;;;;;;5020787;28;8544;-81
2022/10/26 12:06:30;;;;;;;;;;;;;;;;;;5034194;28;7047;-82
2022/10/26 12:09:01;;;;;;;;;;;;;;;;;;5034395;28;8581;-81
2022/10/26 12:11:45;;;;;;;;;;;;;;;;;;5034183;28;8898;-81
2022/10/26 12:14:17;;;;;;;;;;;;;;;;;;5017435;28;8384;-80
2022/10/26 12:16:45;;;;;;;;;;;;;;;;;;5017290;28;7161;-79
2022/10/26 12:19:20;;;;;;;;;;;;;;;;;;5017488;28;8576;-80
2022/10/26 12:21:48;;;;;;;;;;;;;;;;;;5033462;28;7037;-80
2022/10/26 12:24:23;;;;;;;;;;;;;;;;;;5033418;28;8387;-81
2022/10/26 12:26:51;;;;;;;;;;;;;;;;;;5016266;28;7197;-81
2022/10/26 12:29:26;;;;;;;;;;;;;;;;;;5016465;28;7163;-82
2022/10/26 12:31:51;;;;;;;;;;;;;;;;;;5016419;28;8295;-79
2022/10/26 12:34:43;;;;;;;;;;;;;;;;;;5063185;28;8301;-81
2022/10/26 12:37:21;;;;;;;;;;;;;;;;;;5035581;28;8781;-83
2022/10/26 12:39:47;;;;;;;;;;;;;;;;;;5036327;28;8555;-78
2022/10/26 12:42:15;;;;;;;;;;;;;;;;;;5052410;28;8413;-79
2022/10/26 12:44:47;;;;;;;;;;;;;;;;;;5052563;28;8472;-80
2022/10/26 12:47:28;;;;;;;;;;;;;;;;;;5052300;28;8459;-80
2022/10/26 12:50:06;;;;;;;;;;;;;;;;;;5052784;28;8963;-80
2022/10/26 12:53:01;;;;;;;;;;;;;;;;;;5056793;28;7065;-80
2022/10/26 12:55:49;;;;;;;;;;;;;;;;;;5023195;28;7058;-81
2022/10/26 12:58:24;;;;;;;;;;;;;;;;;;5044798;28;8462;-79
2022/10/26 13:00:58;;;;;;;;;;;;;;;;;;5041055;28;7389;-81
2022/10/26 13:03:42;;;;;;;;;;;;;;;;;;5035719;28;8464;-80
2022/10/26 13:06:17;;;;;;;;;;;;;;;;;;5035964;28;8426;-81
2022/10/26 13:08:48;;;;;;;;;;;;;;;;;;5039885;28;8429;-78
2022/10/26 13:11:14;;;;;;;;;;;;;;;;;;5049587;28;8435;-77
2022/10/26 13:13:41;;;;;;;;;;;;;;;;;;5042921;28;8388;-84
2022/10/26 13:16:11;;;;;;;;;;;;;;;;;;5033635;28;7182;-81
2022/10/26 13:18:42;;;;;;;;;;;;;;;;;;5038785;28;7073;-80
2022/10/26 13:21:12;;;;;;;;;;;;;;;;;;5049790;28;7040;-80
2022/10/26 13:23:40;;;;;;;;;;;;;;;;;;5044321;28;8281;-84
2022/10/26 13:26:10;;;;;;;;;;;;;;;;;;5042734;28;8365;-81
2022/10/26 13:28:36;;;;;;;;;;;;;;;;;;5036854;28;7052;-82
2022/10/26 13:31:01;;;;;;;;;;;;;;;;;;5031813;28;8412;-81
2022/10/26 13:33:36;;;;;;;;;;;;;;;;;;5034424;28;7506;-81
2022/10/26 13:36:05;;;;;;;;;;;;;;;;;;5034823;28;7089;-83
2022/10/26 13:38:35;;;;;;;;;;;;;;;;;;5040502;28;6848;-82
2022/10/26 13:41:17;;;;;;;;;;;;;;;;;;5034096;28;8729;-84
2022/10/26 13:43:45;;;;;;;;;;;;;;;;;;5032424;28;8388;-82
2022/10/26 13:46:21;;;;;;;;;;;;;;;;;;5037680;28;7046;-82
2022/10/26 13:48:48;;;;;;;;;;;;;;;;;;5033348;28;8594;-83
2022/10/26 13:51:29;;;;;;;;;;;;;;;;;;5032703;28;7276;-78
2022/10/26 13:54:02;;;;;;;;;;;;;;;;;;5031163;28;8497;-83
2022/10/26 13:56:34;;;;;;;;;;;;;;;;;;5040733;28;7033;-80
2022/10/26 13:59:05;;;;;;;;;;;;;;;;;;5017178;28;7148;-79
2022/10/26 14:01:31;;;;;;;;;;;;;;;;;;5033097;28;8379;-84
2022/10/26 14:03:57;;;;;;;;;;;;;;;;;;5047844;28;7120;-74
2022/10/26 14:06:22;;;;;;;;;;;;;;;;;;5039581;28;8733;-82
2022/10/26 14:08:50;;;;;;;;;;;;;;;;;;5038133;28;7114;-81
2022/10/26 14:11:19;;;;;;;;;;;;;;;;;;5038578;28;8326;-79
2022/10/26 14:13:46;;;;;;;;;;;;;;;;;;5041042;28;7052;-84
2022/10/26 14:16:17;;;;;;;;;;;;;;;;;;5033216;28;7167;-81
2022/10/26 14:18:44;;;;;;;;;;;;;;;;;;5035408;28;8441;-79
2022/10/26 14:21:15;;;;;;;;;;;;;;;;;;5043250;28;7031;-79
2022/10/26 14:23:44;;;;;;;;;;;;;;;;;;5040405;28;7194;-79
2022/10/26 14:26:20;;;;;;;;;;;;;;;;;;5036312;28;7046;-80
2022/10/26 14:28:49;;;;;;;;;;;;;;;;;;5035191;28;8299;-78
2022/10/26 14:31:23;;;;;;;;;;;;;;;;;;5036303;28;8499;-84
2022/10/26 14:33:52;;;;;;;;;;;;;;;;;;5040035;28;8392;-82
2022/10/26 14:36:21;;;;;;;;;;;;;;;;;;5036016;28;7076;-79
2022/10/26 14:38:49;;;;;;;;;;;;;;;;;;5016676;28;8513;-78
2022/10/26 14:41:16;;;;;;;;;;;;;;;;;;5041113;28;8416;-83
2022/10/26 14:43:43;;;;;;;;;;;;;;;;;;5018491;28;7980;-83
2022/10/26 14:46:16;;;;;;;;;;;;;;;;;;5018766;28;7166;-83
2022/10/26 14:48:56;;;;;;;;;;;;;;;;;;5017921;28;7045;-80
2022/10/26 14:51:29;;;;;;;;;;;;;;;;;;5019067;28;7461;-81
2022/10/26 14:53:59;;;;;;;;;;;;;;;;;;5019330;28;8472;-81
2022/10/26 14:56:34;;;;;;;;;;;;;;;;;;5018587;28;8336;-80
2022/10/26 14:59:10;;;;;;;;;;;;;;;;;;5018470;28;8418;-81
2022/10/26 15:01:53;;;;;;;;;;;;;;;;;;5017948;28;8744;-82
2022/10/26 15:04:33;;;;;;;;;;;;;;;;;;5019025;28;8470;-82
2022/10/26 15:07:11;;;;;;;;;;;;;;;;;;5017794;28;7057;-81
2022/10/26 15:09:38;;;;;;;;;;;;;;;;;;5018946;28;7044;-82
2022/10/26 15:12:05;;;;;;;;;;;;;;;;;;5018746;28;8437;-81
2022/10/26 15:14:31;;;;;;;;;;;;;;;;;;5017931;28;7547;-82
2022/10/26 15:16:57;;;;;;;;;;;;;;;;;;5018134;28;8418;-81
2022/10/26 15:19:26;;;;;;;;;;;;;;;;;;5018379;28;7130;-81
2022/10/26 15:21:52;;;;;;;;;;;;;;;;;;5017940;28;9196;-83
2022/10/26 15:24:38;;;;;;;;;;;;;;;;;;5018368;28;8525;-83
2022/10/26 15:27:11;;;;;;;;;;;;;;;;;;5017851;28;7139;-82
2022/10/26 15:29:42;;;;;;;;;;;;;;;;;;5018512;28;7039;-83
2022/10/26 15:32:25;;;;;;;;;;;;;;;;;;5017926;28;8430;-82
2022/10/26 15:35:09;;;;;;;;;;;;;;;;;;5018300;28;8397;-82
2022/10/26 15:37:35;;;;;;;;;;;;;;;;;;5033582;28;8515;-83
2022/10/26 15:40:00;;;;;;;;;;;;;;;;;;5018081;28;8460;-82
2022/10/26 15:42:25;;;;;;;;;;;;;;;;;;5018048;28;6991;-81
2022/10/26 15:44:52;;;;;;;;;;;;;;;;;;5026739;28;8472;-75
2022/10/26 15:47:21;;;;;;;;;;;;;;;;;;5029016;28;7038;-74
2022/10/26 15:49:46;;;;;;;;;;;;;;;;;;5019394;28;8331;-82
2022/10/26 15:52:13;;;;;;;;;;;;;;;;;;5017311;28;7142;-82
2022/10/26 15:54:39;;;;;;;;;;;;;;;;;;5016618;28;9486;-82
2022/10/26 15:57:07;;;;;;;;;;;;;;;;;;5033139;28;8538;-80
2022/10/26 15:59:32;;;;;;;;;;;;;;;;;;5036873;28;8462;-81
2022/10/26 16:01:57;;;;;;;;;;;;;;;;;;5036787;28;8418;-82
2022/10/26 16:04:23;;;;;;;;;;;;;;;;;;5037338;28;8439;-84
2022/10/26 16:06:48;;;;;;;;;;;;;;;;;;5037293;28;8980;-81
2022/10/26 16:09:16;;;;;;;;;;;;;;;;;;5037167;28;8740;-82
2022/10/26 16:11:42;;;;;;;;;;;;;;;;;;5037646;28;9849;-82
2022/10/26 16:14:09;;;;;;;;;;;;;;;;;;5037501;28;8818;-84
2022/10/26 16:16:34;;;;;;;;;;;;;;;;;;5037389;28;8420;-84
2022/10/26 16:18:59;;;;;;;;;;;;;;;;;;5037146;28;8420;-82
2022/10/26 16:21:25;;;;;;;;;;;;;;;;;;5036313;28;7496;-84
2022/10/26 16:23:53;;;;;;;;;;;;;;;;;;5037356;28;8444;-83
2022/10/26 16:26:19;;;;;;;;;;;;;;;;;;5033701;28;7183;-82
2022/10/26 16:28:44;;;;;;;;;;;;;;;;;;5032919;28;8748;-84
2022/10/26 16:31:12;;;;;;;;;;;;;;;;;;5033472;28;8419;-84
2022/10/26 16:33:38;;;;;;;;;;;;;;;;;;5057073;28;8459;-83
2022/10/26 16:36:04;;;;;;;;;;;;;;;;;;5052977;28;8406;-82
2022/10/26 16:38:31;;;;;;;;;;;;;;;;;;5052830;28;7048;-82
2022/10/26 16:41:03;;;;;;;;;;;;;;;;;;5042439;28;8343;-82
2022/10/26 16:43:34;;;;;;;;;;;;;;;;;;5017052;28;8440;-82
2022/10/26 16:46:01;;;;;;;;;;;;;;;;;;5024593;28;7210;-82
2022/10/26 16:48:27;;;;;;;;;;;;;;;;;;5036242;28;8316;-81
2022/10/26 16:50:52;;;;;;;;;;;;;;;;;;5037104;28;8425;-81
2022/10/26 16:53:18;;;;;;;;;;;;;;;;;;5036759;28;7186;-83
2022/10/26 16:55:44;;;;;;;;;;;;;;;;;;5033552;28;7149;-82
2022/10/26 16:58:11;;;;;;;;;;;;;;;;;;5015100;28;8698;-83
2022/10/26 17:00:36;;;;;;;;;;;;;;;;;;5016552;28;7155;-85
2022/10/26 17:03:03;;;;;;;;;;;;;;;;;;5016924;28;8696;-83
2022/10/26 17:05:29;;;;;;;;;;;;;;;;;;5017254;28;7034;-83
2022/10/26 17:07:55;;;;;;;;;;;;;;;;;;5016671;28;9524;-84
2022/10/26 17:10:20;;;;;;;;;;;;;;;;;;5016999;28;8854;-81
2022/10/26 17:12:46;;;;;;;;;;;;;;;;;;5017549;28;8705;-82
2022/10/26 17:15:12;;;;;;;;;;;;;;;;;;5016380;28;7206;-82
2022/10/26 17:17:37;;;;;;;;;;;;;;;;;;5016253;28;7121;-83
2022/10/26 17:20:03;;;;;;;;;;;;;;;;;;5016602;28;8346;-83